Time;durP1;ratioP1;P1;durP2;ratioP2;P2;SDS_P1;SDS_P2;PMS_P1;PMS_P2;Temp;Humidity;BMP_temperature;BMP_pressure;BME280_temperature;BME280_humidity;BME280_pressure;Samples;Min_cycle;Max_cycle;Signal;HPM_P1;HPM_P2
2021/03/27 00:01:12;;;;;;;7.45;4.45;;;;;;;;;;4995554;28;20047;-79
2021/03/27 00:03:41;;;;;;;7.55;4.95;;;;;;;;;;4995832;28;20050;-79
2021/03/27 00:06:12;;;;;;;8.75;4.85;;;;;;;;;;4995852;28;20043;-80
2021/03/27 00:08:45;;;;;;;7.50;4.15;;;;;;;;;;4957515;28;20058;-79
2021/03/27 00:11:14;;;;;;;8.52;4.65;;;;;;;;;;4973963;28;20051;-79
2021/03/27 00:13:47;;;;;;;8.00;4.50;;;;;;;;;;4970495;28;20055;-79
2021/03/27 00:16:18;;;;;;;8.20;4.40;;;;;;;;;;4990495;28;20042;-79
2021/03/27 00:18:53;;;;;;;8.13;4.38;;;;;;;;;;4990380;28;20050;-78
2021/03/27 00:21:25;;;;;;;8.65;4.80;;;;;;;;;;4975251;28;20491;-79
2021/03/27 00:23:55;;;;;;;6.93;4.47;;;;;;;;;;4990823;28;20050;-77
2021/03/27 00:26:25;;;;;;;6.97;4.38;;;;;;;;;;4981362;28;20051;-81
2021/03/27 00:28:55;;;;;;;7.35;4.43;;;;;;;;;;4977164;28;20058;-78
2021/03/27 00:31:23;;;;;;;6.43;4.38;;;;;;;;;;4977513;28;20082;-77
2021/03/27 00:33:52;;;;;;;11.32;5.55;;;;;;;;;;4977144;28;20059;-78
2021/03/27 00:36:23;;;;;;;7.80;5.15;;;;;;;;;;4978318;28;20402;-78
2021/03/27 00:38:53;;;;;;;10.25;6.15;;;;;;;;;;4970727;28;20051;-79
2021/03/27 00:41:23;;;;;;;9.25;5.95;;;;;;;;;;4980003;28;20102;-78
2021/03/27 00:43:54;;;;;;;9.05;6.10;;;;;;;;;;4960103;28;20448;-78
2021/03/27 00:46:21;;;;;;;8.68;5.50;;;;;;;;;;4959027;29;20059;-78
2021/03/27 00:48:52;;;;;;;11.27;6.18;;;;;;;;;;4969723;28;20047;-78
2021/03/27 00:51:25;;;;;;;9.07;5.80;;;;;;;;;;4997749;28;20061;-79
2021/03/27 00:53:54;;;;;;;9.18;6.22;;;;;;;;;;4978775;28;20043;-78
2021/03/27 00:56:22;;;;;;;8.85;5.68;;;;;;;;;;4971655;28;20525;-79
2021/03/27 00:58:50;;;;;;;12.18;6.40;;;;;;;;;;4974852;28;20049;-79
2021/03/27 01:01:18;;;;;;;9.73;5.50;;;;;;;;;;4977862;28;20410;-78
2021/03/27 01:03:47;;;;;;;6.53;4.47;;;;;;;;;;4977892;28;20063;-79
2021/03/27 01:06:16;;;;;;;7.93;4.40;;;;;;;;;;4977741;28;20046;-78
2021/03/27 01:08:46;;;;;;;7.03;4.35;;;;;;;;;;4978045;28;20551;-79
2021/03/27 01:11:18;;;;;;;7.18;4.30;;;;;;;;;;4967502;28;20048;-78
2021/03/27 01:13:47;;;;;;;7.55;4.20;;;;;;;;;;4958021;29;20050;-78
2021/03/27 01:16:16;;;;;;;9.05;4.80;;;;;;;;;;4978130;28;20050;-79
2021/03/27 01:18:44;;;;;;;6.68;4.20;;;;;;;;;;4976790;28;20047;-79
2021/03/27 01:21:13;;;;;;;8.07;4.95;;;;;;;;;;4974895;28;20043;-78
2021/03/27 01:23:39;;;;;;;8.98;4.68;;;;;;;;;;4977377;28;20125;-78
2021/03/27 01:26:10;;;;;;;6.43;4.57;;;;;;;;;;4984923;28;20164;-77
2021/03/27 01:28:39;;;;;;;7.60;4.32;;;;;;;;;;4981139;28;20054;-77
2021/03/27 01:31:10;;;;;;;8.40;5.07;;;;;;;;;;4987642;28;20051;-78
2021/03/27 01:33:41;;;;;;;10.80;5.85;;;;;;;;;;4977588;28;20057;-78
2021/03/27 01:36:11;;;;;;;8.13;5.68;;;;;;;;;;4977074;28;20043;-78
2021/03/27 01:38:41;;;;;;;7.93;5.00;;;;;;;;;;4970307;28;20054;-78
2021/03/27 01:41:19;;;;;;;10.55;5.88;;;;;;;;;;4977047;28;20065;-77
2021/03/27 01:43:52;;;;;;;10.25;6.80;;;;;;;;;;4977208;28;20047;-78
2021/03/27 01:46:32;;;;;;;10.73;6.03;;;;;;;;;;4978298;28;20046;-79
2021/03/27 01:49:08;;;;;;;10.50;5.80;;;;;;;;;;4977355;28;20058;-78
2021/03/27 01:51:49;;;;;;;11.35;5.65;;;;;;;;;;4957244;29;20051;-79
2021/03/27 01:54:20;;;;;;;9.55;6.00;;;;;;;;;;4976731;28;20050;-79
2021/03/27 01:57:06;;;;;;;10.07;5.93;;;;;;;;;;4976219;28;20050;-78
2021/03/27 01:59:33;;;;;;;;;;;;;;;;;;4977083;28;20050;-78
2021/03/27 02:02:04;;;;;;;9.30;5.68;;;;;;;;;;4996081;23;20773;-84
2021/03/27 02:04:34;;;;;;;10.43;6.63;;;;;;;;;;5001458;28;20046;-82
2021/03/27 02:07:03;;;;;;;10.88;7.13;;;;;;;;;;5000567;28;20057;-82
2021/03/27 02:09:31;;;;;;;8.82;6.70;;;;;;;;;;5000538;28;20050;-82
2021/03/27 02:12:05;;;;;;;10.77;6.90;;;;;;;;;;5001578;28;20065;-83
2021/03/27 02:14:42;;;;;;;11.77;7.05;;;;;;;;;;5000379;28;20046;-83
2021/03/27 02:17:13;;;;;;;11.32;6.55;;;;;;;;;;5001611;28;20054;-84
2021/03/27 02:20:16;;;;;;;10.48;6.95;;;;;;;;;;5000301;28;20051;-82
2021/03/27 02:22:47;;;;;;;12.65;7.30;;;;;;;;;;4996939;28;20050;-83
2021/03/27 02:25:41;;;;;;;9.40;6.65;;;;;;;;;;5000630;28;20043;-83
2021/03/27 02:28:16;;;;;;;8.60;6.68;;;;;;;;;;4999754;28;20109;-83
2021/03/27 02:30:46;;;;;;;13.87;7.10;;;;;;;;;;4983268;28;20043;-83
2021/03/27 02:33:26;;;;;;;14.32;6.95;;;;;;;;;;5000840;28;20050;-83
2021/03/27 02:36:18;;;;;;;10.55;6.72;;;;;;;;;;5000989;28;20057;-83
2021/03/27 02:38:55;;;;;;;11.13;7.13;;;;;;;;;;5000387;28;20047;-83
2021/03/27 02:41:42;;;;;;;10.55;6.90;;;;;;;;;;4999290;28;20403;-83
2021/03/27 02:44:13;;;;;;;10.48;6.93;;;;;;;;;;4989271;28;20061;-83
2021/03/27 02:46:43;;;;;;;12.88;7.15;;;;;;;;;;5000964;28;20050;-83
2021/03/27 02:49:25;;;;;;;10.27;7.10;;;;;;;;;;5000251;28;20087;-83
2021/03/27 02:52:03;;;;;;;9.70;6.97;;;;;;;;;;5000587;28;20062;-83
2021/03/27 02:54:32;;;;;;;9.93;7.13;;;;;;;;;;4981478;28;20055;-83
2021/03/27 02:57:03;;;;;;;10.10;7.35;;;;;;;;;;4979959;28;20051;-83
2021/03/27 02:59:40;;;;;;;13.13;7.20;;;;;;;;;;5012229;28;20064;-82
2021/03/27 03:02:12;;;;;;;12.15;8.07;;;;;;;;;;5012185;28;20050;-81
2021/03/27 03:04:43;;;;;;;9.60;6.97;;;;;;;;;;4999628;28;20053;-82
2021/03/27 03:07:14;;;;;;;11.50;7.22;;;;;;;;;;4998643;28;20050;-83
2021/03/27 03:09:46;;;;;;;11.82;6.93;;;;;;;;;;4999033;28;20050;-82
2021/03/27 03:12:16;;;;;;;12.82;7.50;;;;;;;;;;4998127;28;20053;-82
2021/03/27 03:14:51;;;;;;;13.57;7.90;;;;;;;;;;4979503;28;20054;-82
2021/03/27 03:17:23;;;;;;;10.88;7.38;;;;;;;;;;4978964;28;20451;-82
2021/03/27 03:19:54;;;;;;;11.98;7.28;;;;;;;;;;4994798;28;20057;-82
2021/03/27 03:22:24;;;;;;;10.65;6.97;;;;;;;;;;4998041;28;20066;-83
2021/03/27 03:24:53;;;;;;;20.40;8.15;;;;;;;;;;4997104;28;20081;-80
2021/03/27 03:27:23;;;;;;;13.18;7.90;;;;;;;;;;4998546;28;20419;-83
2021/03/27 03:29:57;;;;;;;11.82;7.53;;;;;;;;;;4998990;28;20046;-80
2021/03/27 03:32:34;;;;;;;11.85;7.82;;;;;;;;;;4997168;28;20054;-82
2021/03/27 03:35:23;;;;;;;11.85;6.90;;;;;;;;;;4997934;28;20058;-84
2021/03/27 03:37:57;;;;;;;9.55;7.30;;;;;;;;;;4997965;28;20046;-81
2021/03/27 03:40:30;;;;;;;12.57;7.85;;;;;;;;;;5015113;28;20046;-82
2021/03/27 03:43:08;;;;;;;10.70;7.40;;;;;;;;;;5011549;28;20446;-82
2021/03/27 03:45:39;;;;;;;11.32;7.30;;;;;;;;;;4996976;28;20046;-81
2021/03/27 03:48:14;;;;;;;12.35;7.57;;;;;;;;;;4997656;28;20050;-83
2021/03/27 03:50:45;;;;;;;13.68;7.35;;;;;;;;;;4977562;28;20110;-82
2021/03/27 03:53:29;;;;;;;9.55;6.60;;;;;;;;;;4987447;28;20046;-82
2021/03/27 03:56:00;;;;;;;12.45;7.45;;;;;;;;;;5001561;28;20483;-81
2021/03/27 03:58:38;;;;;;;10.63;6.70;;;;;;;;;;5001187;28;20129;-82
2021/03/27 04:01:07;;;;;;;10.27;6.60;;;;;;;;;;4993309;28;20062;-81
2021/03/27 04:03:37;;;;;;;11.05;6.90;;;;;;;;;;4982055;28;20042;-83
2021/03/27 04:06:05;;;;;;;9.40;6.97;;;;;;;;;;4983208;28;20051;-82
2021/03/27 04:08:40;;;;;;;10.40;7.15;;;;;;;;;;4990865;28;20066;-83
2021/03/27 04:11:16;;;;;;;11.82;6.95;;;;;;;;;;5021582;28;20050;-84
2021/03/27 04:13:46;;;;;;;8.32;5.80;;;;;;;;;;5021571;28;20065;-84
2021/03/27 04:16:14;;;;;;;10.60;6.05;;;;;;;;;;5021461;28;20054;-84
2021/03/27 04:18:44;;;;;;;9.50;5.72;;;;;;;;;;5017835;28;20041;-84
2021/03/27 04:21:13;;;;;;;7.55;5.38;;;;;;;;;;5018782;28;20046;-83
2021/03/27 04:23:43;;;;;;;8.55;5.10;;;;;;;;;;5001937;28;20050;-82
2021/03/27 04:26:34;;;;;;;8.35;4.63;;;;;;;;;;5009803;28;20053;-83
2021/03/27 04:29:12;;;;;;;7.10;4.38;;;;;;;;;;5004682;28;20050;-81
2021/03/27 04:31:42;;;;;;;7.30;4.43;;;;;;;;;;5000426;28;20042;-82
2021/03/27 04:34:12;;;;;;;8.45;4.38;;;;;;;;;;5000510;28;20053;-82
2021/03/27 04:36:44;;;;;;;6.88;4.53;;;;;;;;;;5001419;28;20043;-83
2021/03/27 04:39:13;;;;;;;6.32;4.03;;;;;;;;;;5009960;28;20053;-80
2021/03/27 04:41:45;;;;;;;5.85;3.95;;;;;;;;;;5020389;28;20042;-82
2021/03/27 04:44:24;;;;;;;5.85;4.22;;;;;;;;;;5020473;28;20046;-82
2021/03/27 04:46:53;;;;;;;6.88;3.50;;;;;;;;;;5020490;28;20058;-80
2021/03/27 04:49:25;;;;;;;6.05;4.07;;;;;;;;;;5007686;28;20051;-81
2021/03/27 04:51:54;;;;;;;5.53;3.30;;;;;;;;;;5000913;28;20428;-82
2021/03/27 04:54:32;;;;;;;6.30;3.45;;;;;;;;;;5000100;28;20058;-81
2021/03/27 04:57:08;;;;;;;7.00;3.95;;;;;;;;;;5000704;28;20054;-80
2021/03/27 04:59:48;;;;;;;8.98;3.88;;;;;;;;;;5009131;28;20042;-81
2021/03/27 05:02:15;;;;;;;6.25;4.10;;;;;;;;;;5000788;28;20050;-83
2021/03/27 05:04:51;;;;;;;5.75;3.35;;;;;;;;;;5000471;28;20138;-82
2021/03/27 05:07:19;;;;;;;6.93;3.70;;;;;;;;;;5004426;28;20046;-81
2021/03/27 05:09:49;;;;;;;7.65;3.05;;;;;;;;;;4999984;28;20131;-82
2021/03/27 05:12:18;;;;;;;5.90;4.00;;;;;;;;;;4980993;28;20464;-82
2021/03/27 05:14:57;;;;;;;6.80;4.97;;;;;;;;;;4981346;28;20058;-81
2021/03/27 05:17:39;;;;;;;6.18;4.30;;;;;;;;;;4981164;28;20047;-81
2021/03/27 05:20:15;;;;;;;7.55;4.72;;;;;;;;;;5013551;28;20050;-82
2021/03/27 05:22:47;;;;;;;7.30;4.85;;;;;;;;;;5020338;28;20052;-82
2021/03/27 05:25:51;;;;;;;8.65;4.72;;;;;;;;;;5014527;28;20038;-82
2021/03/27 05:28:40;;;;;;;5.65;3.83;;;;;;;;;;4999720;28;20089;-83
2021/03/27 05:31:19;;;;;;;5.93;3.90;;;;;;;;;;5017170;28;20050;-82
2021/03/27 05:33:55;;;;;;;5.35;3.80;;;;;;;;;;5020555;28;20060;-81
2021/03/27 05:36:44;;;;;;;4.63;3.03;;;;;;;;;;5018045;28;20046;-82
2021/03/27 05:39:25;;;;;;;5.13;2.80;;;;;;;;;;5008470;28;20045;-82
2021/03/27 05:42:03;;;;;;;4.40;2.55;;;;;;;;;;5019644;28;20046;-81
2021/03/27 05:44:48;;;;;;;4.32;2.40;;;;;;;;;;5019526;28;20054;-82
2021/03/27 05:48:02;;;;;;;5.47;2.60;;;;;;;;;;5010886;28;20042;-81
2021/03/27 05:50:51;;;;;;;4.97;2.75;;;;;;;;;;4999726;28;20067;-82
2021/03/27 05:53:41;;;;;;;4.05;2.20;;;;;;;;;;4999860;28;20137;-82
2021/03/27 05:56:16;;;;;;;5.60;2.30;;;;;;;;;;4999913;28;20062;-81
2021/03/27 05:59:06;;;;;;;4.27;2.50;;;;;;;;;;5004967;28;20046;-82
2021/03/27 06:01:42;;;;;;;5.35;2.60;;;;;;;;;;5007678;28;20302;-82
2021/03/27 06:04:44;;;;;;;5.10;2.85;;;;;;;;;;5000072;28;20050;-79
2021/03/27 06:07:49;;;;;;;4.60;2.53;;;;;;;;;;4973470;28;20084;-80
2021/03/27 06:10:38;;;;;;;5.25;2.30;;;;;;;;;;5016769;28;20050;-83
2021/03/27 06:13:16;;;;;;;6.13;3.10;;;;;;;;;;4997470;28;20046;-80
2021/03/27 06:16:11;;;;;;;4.03;2.78;;;;;;;;;;4998037;28;20088;-82
2021/03/27 06:19:10;;;;;;;4.57;2.13;;;;;;;;;;5000211;28;20486;-82
2021/03/27 06:21:43;;;;;;;5.65;3.00;;;;;;;;;;4998811;28;20047;-82
2021/03/27 06:24:31;;;;;;;6.05;3.15;;;;;;;;;;4998290;28;20050;-82
2021/03/27 06:27:10;;;;;;;6.50;3.13;;;;;;;;;;4997572;28;20046;-81
2021/03/27 06:29:59;;;;;;;5.95;2.78;;;;;;;;;;5000133;28;20054;-82
2021/03/27 06:32:52;;;;;;;4.00;1.65;;;;;;;;;;5000132;28;20104;-82
2021/03/27 06:35:30;;;;;;;2.72;0.95;;;;;;;;;;5006902;28;20058;-82
2021/03/27 06:38:23;;;;;;;4.95;1.00;;;;;;;;;;5003480;28;20053;-82
2021/03/27 06:41:07;;;;;;;3.28;0.90;;;;;;;;;;4987495;28;20072;-83
2021/03/27 06:43:51;;;;;;;2.00;1.00;;;;;;;;;;4998716;28;20046;-82
2021/03/27 06:46:50;;;;;;;1.95;1.00;;;;;;;;;;4998775;28;20050;-82
2021/03/27 06:49:47;;;;;;;1.02;0.60;;;;;;;;;;4956596;28;20050;-82
2021/03/27 06:52:47;;;;;;;0.93;0.47;;;;;;;;;;4998612;28;20540;-84
2021/03/27 06:55:40;;;;;;;4.47;0.85;;;;;;;;;;4966836;28;20124;-81
2021/03/27 06:58:45;;;;;;;0.98;0.50;;;;;;;;;;4956964;28;20065;-83
2021/03/27 07:01:49;;;;;;;1.48;0.75;;;;;;;;;;5012644;28;20429;-83
2021/03/27 07:04:49;;;;;;;2.60;1.30;;;;;;;;;;5016092;28;20101;-84
2021/03/27 07:07:43;;;;;;;4.25;1.67;;;;;;;;;;4983984;28;20077;-81
2021/03/27 07:10:45;;;;;;;4.40;1.27;;;;;;;;;;5005612;28;20057;-83
2021/03/27 07:13:25;;;;;;;1.48;0.90;;;;;;;;;;4945185;28;20050;-82
2021/03/27 07:19:48;;;;;;;;;;;;;;;;;;;;;
2021/03/27 07:22:53;;;;;;;2.22;0.77;;;;;;;;;;4981863;28;20111;-85
2021/03/27 07:25:44;;;;;;;2.70;0.70;;;;;;;;;;4969635;28;20057;-85
2021/03/27 07:28:49;;;;;;;1.80;0.80;;;;;;;;;;4966635;28;20720;-85
2021/03/27 07:31:47;;;;;;;1.30;0.57;;;;;;;;;;4937592;29;20087;-85
2021/03/27 07:34:58;;;;;;;1.70;1.02;;;;;;;;;;4998548;28;20081;-84
2021/03/27 07:38:19;;;;;;;3.92;1.50;;;;;;;;;;4902091;29;20059;-86
2021/03/27 07:40:54;;;;;;;1.40;0.70;;;;;;;;;;4952278;28;20078;-84
2021/03/27 07:43:56;;;;;;;1.92;1.00;;;;;;;;;;4990798;28;20057;-84
2021/03/27 07:46:32;;;;;;;2.05;1.42;;;;;;;;;;4994461;28;20046;-82
2021/03/27 07:49:27;;;;;;;1.63;1.00;;;;;;;;;;5001960;28;20125;-83
2021/03/27 07:52:04;;;;;;;2.38;1.17;;;;;;;;;;5006912;28;20084;-84
2021/03/27 07:54:53;;;;;;;6.28;1.48;;;;;;;;;;4993980;28;20053;-83
2021/03/27 07:57:40;;;;;;;2.63;1.08;;;;;;;;;;4999261;28;20129;-86
2021/03/27 08:00:43;;;;;;;2.22;1.20;;;;;;;;;;5007869;28;20055;-84
2021/03/27 08:03:29;;;;;;;2.80;1.17;;;;;;;;;;4996679;28;20050;-84
2021/03/27 08:06:01;;;;;;;2.73;1.23;;;;;;;;;;5000498;28;20069;-87
2021/03/27 08:08:59;;;;;;;1.75;1.13;;;;;;;;;;5001875;28;20062;-86
2021/03/27 08:11:39;;;;;;;1.02;0.63;;;;;;;;;;4999914;28;20129;-87
2021/03/27 08:14:46;;;;;;;2.95;0.90;;;;;;;;;;5000882;28;20047;-88
2021/03/27 08:17:37;;;;;;;2.50;1.37;;;;;;;;;;5001975;28;20061;-86
2021/03/27 08:20:42;;;;;;;2.00;1.00;;;;;;;;;;5015449;28;20064;-85
2021/03/27 08:26:00;;;;;;;1.55;0.95;;;;;;;;;;4995853;28;20119;-84
2021/03/27 08:36:37;;;;;;;1.23;0.95;;;;;;;;;;4903507;29;20039;-81
2021/03/27 08:43:01;;;;;;;1.63;0.82;;;;;;;;;;4880095;29;20105;-82
2021/03/27 08:45:40;;;;;;;1.70;1.00;;;;;;;;;;4986327;28;20047;-82
2021/03/27 10:22:34;;;;;;;5.05;2.25;;;;;;;;;;3381007;26;786890;-65
2021/03/27 10:25:06;;;;;;;5.72;2.70;;;;;;;;;;5097181;28;20488;-65
2021/03/27 10:27:39;;;;;;;6.07;1.60;;;;;;;;;;5098602;28;20046;-66
2021/03/27 10:30:43;;;;;;;10.18;2.97;;;;;;;;;;5105166;28;20135;-66
2021/03/27 10:33:17;;;;;;;3.53;1.15;;;;;;;;;;5104546;28;20138;-65
2021/03/27 10:36:08;;;;;;;5.80;2.50;;;;;;;;;;5109367;28;20052;-65
2021/03/27 10:38:48;;;;;;;4.38;1.30;;;;;;;;;;5104708;28;20580;-65
2021/03/27 10:41:21;;;;;;;3.95;1.77;;;;;;;;;;5089573;28;20135;-65
2021/03/27 10:43:50;;;;;;;4.35;1.80;;;;;;;;;;5091955;28;20464;-65
2021/03/27 10:46:29;;;;;;;4.97;1.40;;;;;;;;;;5104694;28;20044;-65
2021/03/27 10:49:04;;;;;;;5.43;1.30;;;;;;;;;;5102072;28;20052;-65
2021/03/27 10:51:47;;;;;;;3.53;1.00;;;;;;;;;;5088701;28;20050;-65
2021/03/27 10:54:36;;;;;;;4.18;1.60;;;;;;;;;;5100054;28;20079;-65
2021/03/27 10:57:08;;;;;;;1.58;0.75;;;;;;;;;;5102828;28;20048;-66
2021/03/27 10:59:37;;;;;;;2.08;1.00;;;;;;;;;;5089353;28;20048;-66
2021/03/27 11:02:37;;;;;;;3.60;1.45;;;;;;;;;;5090988;28;20048;-66
2021/03/27 11:05:15;;;;;;;1.33;0.80;;;;;;;;;;5089076;28;20056;-66
2021/03/27 11:08:10;;;;;;;4.78;1.33;;;;;;;;;;5087004;28;20040;-66
2021/03/27 11:10:56;;;;;;;4.40;1.13;;;;;;;;;;5086609;28;20102;-66
2021/03/27 11:13:41;;;;;;;3.75;1.17;;;;;;;;;;5090987;28;20052;-66
2021/03/27 11:16:16;;;;;;;2.20;0.80;;;;;;;;;;5108238;28;20400;-66
2021/03/27 11:18:58;;;;;;;2.30;0.90;;;;;;;;;;5099413;28;20048;-68
2021/03/27 11:21:51;;;;;;;3.00;0.82;;;;;;;;;;5087907;28;20101;-66
2021/03/27 11:24:24;;;;;;;3.67;1.85;;;;;;;;;;5098483;28;20461;-66
2021/03/27 11:27:15;;;;;;;3.33;1.83;;;;;;;;;;5102490;28;20427;-66
2021/03/27 11:29:44;;;;;;;2.25;1.17;;;;;;;;;;5080215;28;20048;-66
2021/03/27 11:32:16;;;;;;;2.40;0.93;;;;;;;;;;5064141;28;20052;-66
2021/03/27 11:34:45;;;;;;;2.20;1.08;;;;;;;;;;5069286;28;20344;-66
2021/03/27 11:37:42;;;;;;;3.03;1.48;;;;;;;;;;5081634;28;20052;-66
2021/03/27 11:40:20;;;;;;;3.15;1.40;;;;;;;;;;5057000;28;20056;-66
2021/03/27 11:42:54;;;;;;;3.67;1.30;;;;;;;;;;5088340;28;20047;-66
2021/03/27 11:45:25;;;;;;;1.92;0.90;;;;;;;;;;5083257;28;20102;-66
2021/03/27 11:47:59;;;;;;;4.00;1.77;;;;;;;;;;5073816;28;20554;-66
2021/03/27 11:50:43;;;;;;;2.78;1.40;;;;;;;;;;5073553;28;20048;-66
2021/03/27 11:53:16;;;;;;;3.47;0.90;;;;;;;;;;5074834;28;20048;-66
2021/03/27 11:55:49;;;;;;;3.78;0.70;;;;;;;;;;5093713;28;20078;-66
2021/03/27 11:58:29;;;;;;;4.15;1.08;;;;;;;;;;5088985;28;20051;-66
2021/03/27 12:01:02;;;;;;;2.47;1.23;;;;;;;;;;5053889;28;20052;-66
2021/03/27 12:03:37;;;;;;;2.03;0.70;;;;;;;;;;5075464;28;20097;-66
2021/03/27 12:06:14;;;;;;;1.98;0.80;;;;;;;;;;5093985;28;20562;-66
2021/03/27 12:08:44;;;;;;;2.90;1.02;;;;;;;;;;5085064;28;20098;-66
2021/03/27 12:11:13;;;;;;;4.57;0.93;;;;;;;;;;5073645;28;20048;-66
2021/03/27 12:13:42;;;;;;;2.72;0.95;;;;;;;;;;5077965;28;20059;-66
2021/03/27 12:16:25;;;;;;;4.78;0.82;;;;;;;;;;5093170;28;20048;-66
2021/03/27 12:19:01;;;;;;;3.13;0.88;;;;;;;;;;5084061;28;20032;-66
2021/03/27 12:21:30;;;;;;;3.28;0.75;;;;;;;;;;5072993;28;20067;-66
2021/03/27 12:23:59;;;;;;;3.40;0.90;;;;;;;;;;5080003;28;20147;-66
2021/03/27 12:26:31;;;;;;;2.63;0.68;;;;;;;;;;5092942;28;20048;-66
2021/03/27 12:29:02;;;;;;;3.90;0.80;;;;;;;;;;5083162;28;20036;-66
2021/03/27 12:31:48;;;;;;;1.65;0.95;;;;;;;;;;5073085;28;20492;-66
2021/03/27 12:34:20;;;;;;;1.27;0.60;;;;;;;;;;5058314;28;20052;-65
2021/03/27 12:37:05;;;;;;;1.60;0.70;;;;;;;;;;5077417;28;20492;-65
2021/03/27 12:39:39;;;;;;;2.70;0.70;;;;;;;;;;5077607;28;20612;-65
2021/03/27 12:42:10;;;;;;;2.33;0.85;;;;;;;;;;5082115;28;20506;-65
2021/03/27 12:44:41;;;;;;;1.25;0.60;;;;;;;;;;5079189;28;20062;-65
2021/03/27 12:47:20;;;;;;;1.40;0.63;;;;;;;;;;5072870;28;20048;-65
2021/03/27 12:50:07;;;;;;;1.17;0.70;;;;;;;;;;5072240;28;20059;-65
2021/03/27 12:52:46;;;;;;;4.43;0.80;;;;;;;;;;5072554;28;20416;-65
2021/03/27 12:55:27;;;;;;;1.75;0.68;;;;;;;;;;5083403;28;20052;-65
2021/03/27 12:57:56;;;;;;;1.48;0.60;;;;;;;;;;5080580;28;20052;-65
2021/03/27 13:00:46;;;;;;;0.88;0.82;;;;;;;;;;5072567;28;20273;-65
2021/03/27 13:03:27;;;;;;;2.50;1.15;;;;;;;;;;5072480;28;20409;-65
2021/03/27 13:06:09;;;;;;;2.15;1.02;;;;;;;;;;5072661;28;20052;-65
2021/03/27 13:08:38;;;;;;;3.05;0.75;;;;;;;;;;5084216;28;20041;-65
2021/03/27 13:11:11;;;;;;;1.85;0.70;;;;;;;;;;5072044;28;20454;-65
2021/03/27 13:14:21;;;;;;;2.53;0.63;;;;;;;;;;5072091;28;20488;-65
2021/03/27 13:16:50;;;;;;;3.20;0.70;;;;;;;;;;5036850;28;20051;-65
2021/03/27 13:19:21;;;;;;;2.63;0.60;;;;;;;;;;5071313;28;20044;-65
2021/03/27 13:22:05;;;;;;;1.35;0.63;;;;;;;;;;5071778;28;20439;-65
2021/03/27 13:25:04;;;;;;;1.17;0.55;;;;;;;;;;5072117;28;20056;-65
2021/03/27 13:27:37;;;;;;;2.35;0.80;;;;;;;;;;5076197;28;20553;-65
2021/03/27 13:30:22;;;;;;;3.75;0.80;;;;;;;;;;5071282;28;20059;-66
2021/03/27 13:32:57;;;;;;;2.28;0.80;;;;;;;;;;5071888;28;20051;-66
2021/03/27 13:35:26;;;;;;;1.58;0.68;;;;;;;;;;5062823;28;20056;-65
2021/03/27 13:37:54;;;;;;;1.20;0.60;;;;;;;;;;5072109;28;20053;-66
2021/03/27 13:40:23;;;;;;;1.95;0.60;;;;;;;;;;5071532;28;20052;-66
2021/03/27 13:43:03;;;;;;;2.03;0.90;;;;;;;;;;5072871;28;20052;-65
2021/03/27 13:45:35;;;;;;;1.27;0.60;;;;;;;;;;5071601;28;20106;-66
2021/03/27 13:48:16;;;;;;;1.50;0.55;;;;;;;;;;5075699;28;20086;-65
2021/03/27 13:50:58;;;;;;;1.58;0.70;;;;;;;;;;5084221;28;20047;-65
2021/03/27 13:53:43;;;;;;;2.42;0.68;;;;;;;;;;5092386;28;20121;-66
2021/03/27 13:56:18;;;;;;;1.58;0.60;;;;;;;;;;5085472;28;20044;-65
2021/03/27 13:58:55;;;;;;;1.80;0.70;;;;;;;;;;5076565;28;20052;-66
2021/03/27 14:01:25;;;;;;;0.98;0.68;;;;;;;;;;5070691;28;20045;-66
2021/03/27 14:04:06;;;;;;;2.40;0.60;;;;;;;;;;5072528;28;20045;-65
2021/03/27 14:06:34;;;;;;;1.52;0.57;;;;;;;;;;5073308;28;20128;-65
2021/03/27 14:09:28;;;;;;;2.28;0.60;;;;;;;;;;5081778;28;20048;-66
2021/03/27 14:11:58;;;;;;;2.92;0.95;;;;;;;;;;5072062;28;20557;-66
2021/03/27 14:14:35;;;;;;;2.42;0.88;;;;;;;;;;5081853;28;20059;-66
2021/03/27 14:17:08;;;;;;;1.52;0.60;;;;;;;;;;5087779;28;20048;-65
2021/03/27 14:19:51;;;;;;;2.30;0.60;;;;;;;;;;5071641;28;20541;-65
2021/03/27 14:22:36;;;;;;;2.58;0.73;;;;;;;;;;5075103;28;20087;-65
2021/03/27 14:25:24;;;;;;;2.08;0.52;;;;;;;;;;5052328;28;20045;-66
2021/03/27 14:27:55;;;;;;;2.17;0.85;;;;;;;;;;5052528;28;20624;-66
2021/03/27 14:30:47;;;;;;;2.40;0.75;;;;;;;;;;5072158;28;20048;-66
2021/03/27 14:33:20;;;;;;;2.08;0.65;;;;;;;;;;5075007;28;20060;-66
2021/03/27 14:35:57;;;;;;;1.80;0.82;;;;;;;;;;5058561;28;20694;-66
2021/03/27 14:38:50;;;;;;;2.35;0.70;;;;;;;;;;5077277;28;20060;-66
2021/03/27 14:41:21;;;;;;;1.05;0.47;;;;;;;;;;5039162;28;20137;-65
2021/03/27 14:43:54;;;;;;;3.22;0.75;;;;;;;;;;5071793;28;20052;-66
2021/03/27 14:46:49;;;;;;;3.63;1.60;;;;;;;;;;5071073;28;20396;-66
2021/03/27 14:49:57;;;;;;;2.65;0.98;;;;;;;;;;5056123;28;20048;-66
2021/03/27 14:52:36;;;;;;;2.75;0.75;;;;;;;;;;5026308;28;20054;-66
2021/03/27 14:55:10;;;;;;;1.33;0.80;;;;;;;;;;5071783;28;20040;-66
2021/03/27 14:57:41;;;;;;;2.20;0.70;;;;;;;;;;5063448;28;20049;-66
2021/03/27 15:00:29;;;;;;;3.10;1.00;;;;;;;;;;5075394;28;20044;-66
2021/03/27 15:02:58;;;;;;;3.38;0.93;;;;;;;;;;5071507;28;20049;-66
2021/03/27 15:05:26;;;;;;;2.78;0.85;;;;;;;;;;5086492;28;20101;-66
2021/03/27 15:07:59;;;;;;;2.15;0.85;;;;;;;;;;5082840;28;20056;-66
2021/03/27 15:10:48;;;;;;;2.60;0.82;;;;;;;;;;5082957;28;20067;-66
2021/03/27 15:13:30;;;;;;;4.68;0.60;;;;;;;;;;5086966;28;20070;-66
2021/03/27 15:16:06;;;;;;;3.25;0.93;;;;;;;;;;5084726;28;20055;-66
2021/03/27 15:18:35;;;;;;;4.38;1.05;;;;;;;;;;5075771;28;20468;-66
2021/03/27 15:21:02;;;;;;;2.05;0.73;;;;;;;;;;5075355;28;20103;-66
2021/03/27 15:23:37;;;;;;;2.00;0.68;;;;;;;;;;5091751;28;20044;-66
2021/03/27 15:29:00;;;;;;;2.10;0.70;;;;;;;;;;5070387;28;20055;-66
2021/03/27 15:31:30;;;;;;;2.40;0.70;;;;;;;;;;5078849;28;20059;-66
2021/03/27 15:33:59;;;;;;;1.42;0.93;;;;;;;;;;5074739;28;20101;-66
2021/03/27 15:36:29;;;;;;;1.83;0.77;;;;;;;;;;5070584;28;20053;-67
2021/03/27 15:39:09;;;;;;;3.22;0.90;;;;;;;;;;5067679;28;20542;-66
2021/03/27 15:41:42;;;;;;;2.83;1.00;;;;;;;;;;5074232;28;20044;-66
2021/03/27 15:44:10;;;;;;;2.03;0.90;;;;;;;;;;5074715;28;20044;-66
2021/03/27 15:46:40;;;;;;;4.22;1.00;;;;;;;;;;5091624;28;20060;-66
2021/03/27 15:49:14;;;;;;;2.20;0.85;;;;;;;;;;5077759;28;20037;-66
2021/03/27 15:51:41;;;;;;;2.25;0.55;;;;;;;;;;5070233;28;20488;-66
2021/03/27 15:54:24;;;;;;;3.30;0.98;;;;;;;;;;5073661;28;20037;-65
2021/03/27 15:56:53;;;;;;;2.53;0.85;;;;;;;;;;5074454;28;20052;-66
2021/03/27 15:59:43;;;;;;;4.45;1.00;;;;;;;;;;5074838;28;20053;-66
2021/03/27 16:02:25;;;;;;;1.63;0.80;;;;;;;;;;5072020;28;20476;-66
2021/03/27 16:04:53;;;;;;;2.78;0.85;;;;;;;;;;5073576;28;20040;-66
2021/03/27 16:07:21;;;;;;;3.53;0.75;;;;;;;;;;5074394;28;20446;-65
2021/03/27 16:09:56;;;;;;;2.55;0.70;;;;;;;;;;5073681;28;20049;-65
2021/03/27 16:12:30;;;;;;;3.28;1.38;;;;;;;;;;5074128;28;20075;-65
2021/03/27 16:15:16;;;;;;;3.92;1.42;;;;;;;;;;5074116;28;20061;-65
2021/03/27 16:18:34;;;;;;;4.45;1.20;;;;;;;;;;5074342;28;20045;-66
2021/03/27 16:21:07;;;;;;;2.20;1.10;;;;;;;;;;5061279;28;20048;-66
2021/03/27 16:23:38;;;;;;;3.65;1.25;;;;;;;;;;5066019;28;20060;-66
2021/03/27 16:26:31;;;;;;;5.50;1.60;;;;;;;;;;5074149;28;20044;-66
2021/03/27 16:29:01;;;;;;;3.55;0.88;;;;;;;;;;5073287;28;20040;-65
2021/03/27 16:31:37;;;;;;;5.30;0.90;;;;;;;;;;5073258;28;20048;-66
2021/03/27 16:34:08;;;;;;;5.63;1.52;;;;;;;;;;5073742;28;20706;-66
2021/03/27 16:36:45;;;;;;;4.45;0.98;;;;;;;;;;5070611;28;20048;-66
2021/03/27 16:39:18;;;;;;;2.53;0.90;;;;;;;;;;5066725;28;20044;-66
2021/03/27 16:41:54;;;;;;;2.70;0.88;;;;;;;;;;5073318;28;20044;-66
2021/03/27 16:44:52;;;;;;;3.40;1.33;;;;;;;;;;5072950;28;20048;-66
2021/03/27 16:47:24;;;;;;;3.47;1.20;;;;;;;;;;5072089;28;20657;-66
2021/03/27 16:50:25;;;;;;;4.10;1.00;;;;;;;;;;5072564;28;20094;-66
2021/03/27 16:52:56;;;;;;;2.70;1.02;;;;;;;;;;5062471;28;20071;-66
2021/03/27 16:55:24;;;;;;;3.50;0.90;;;;;;;;;;5072734;28;20060;-66
2021/03/27 16:58:04;;;;;;;5.63;1.48;;;;;;;;;;5071535;28;20049;-65
2021/03/27 17:00:37;;;;;;;5.28;1.10;;;;;;;;;;5071505;28;20037;-65
2021/03/27 17:03:12;;;;;;;9.15;1.80;;;;;;;;;;5071992;28;20041;-65
2021/03/27 17:05:53;;;;;;;2.47;0.90;;;;;;;;;;5074783;28;20051;-66
2021/03/27 17:08:31;;;;;;;1.77;0.80;;;;;;;;;;5070785;28;20048;-65
2021/03/27 17:11:21;;;;;;;3.78;1.00;;;;;;;;;;5078177;28;20055;-65
2021/03/27 17:13:51;;;;;;;4.55;1.00;;;;;;;;;;5079027;28;20090;-65
2021/03/27 17:16:27;;;;;;;2.38;1.00;;;;;;;;;;5073072;28;20550;-65
2021/03/27 17:19:01;;;;;;;3.30;0.88;;;;;;;;;;5073993;28;20515;-65
2021/03/27 17:21:33;;;;;;;5.38;1.52;;;;;;;;;;5075813;28;20082;-65
2021/03/27 17:24:04;;;;;;;4.38;1.60;;;;;;;;;;5079316;28;20067;-65
2021/03/27 17:27:01;;;;;;;3.53;1.30;;;;;;;;;;5072061;28;20045;-68
2021/03/27 17:29:39;;;;;;;3.13;1.40;;;;;;;;;;5071715;28;20500;-66
2021/03/27 17:32:50;;;;;;;3.28;1.80;;;;;;;;;;5068190;28;20048;-65
2021/03/27 17:35:19;;;;;;;2.72;1.00;;;;;;;;;;5066633;28;20044;-65
2021/03/27 17:37:51;;;;;;;3.45;1.17;;;;;;;;;;5069568;28;20158;-65
2021/03/27 17:40:34;;;;;;;3.80;1.30;;;;;;;;;;5068146;28;20089;-66
2021/03/27 17:43:09;;;;;;;5.75;1.35;;;;;;;;;;5066976;28;20048;-66
2021/03/27 17:45:40;;;;;;;4.03;1.15;;;;;;;;;;5071897;28;20071;-66